createdAt,value
2018-12-19T00:00:27.287Z,95785.98
2018-12-19T00:01:00.519Z,95779.81
2018-12-19T00:01:33.558Z,95778.91
2018-12-19T00:02:06.891Z,95776.06
2018-12-19T00:02:39.750Z,95775.31
2018-12-19T00:03:12.949Z,95771.90
2018-12-19T00:03:46.083Z,95769.39
2018-12-19T00:04:19.009Z,95767.89
2018-12-19T00:04:51.840Z,95765.05
2018-12-19T00:05:24.926Z,95763.30
2018-12-19T00:05:57.960Z,95758.39
2018-12-19T00:06:30.749Z,95755.89
2018-12-19T00:07:03.890Z,95758.55
2018-12-19T00:07:37.181Z,95759.06
2018-12-19T00:08:10.119Z,95757.89
2018-12-19T00:08:43.165Z,95754.88
2018-12-19T00:09:16.091Z,95757.30
2018-12-19T00:09:49.111Z,95750.97
2018-12-19T00:10:22.079Z,95751.05
2018-12-19T00:10:55.170Z,95751.30
2018-12-19T00:11:28.104Z,95751.55
2018-12-19T00:12:01.126Z,95753.22
2018-12-19T00:12:34.413Z,95753.05
2018-12-19T00:13:07.500Z,95756.39
2018-12-19T00:13:40.635Z,95759.72
2018-12-19T00:14:13.812Z,95760.14
2018-12-19T00:14:46.641Z,95754.22
2018-12-19T00:15:19.806Z,95755.89
2018-12-19T00:15:52.824Z,95756.05
2018-12-19T00:16:25.793Z,95752.55
2018-12-19T00:16:58.910Z,95758.31
2018-12-19T00:17:32.135Z,95757.22
2018-12-19T00:18:05.443Z,95757.30
2018-12-19T00:18:38.433Z,95748.30
2018-12-19T00:19:11.798Z,95750.55
2018-12-19T00:19:44.681Z,95751.05
2018-12-19T00:20:17.808Z,95748.80
2018-12-19T00:20:51.262Z,95746.05
2018-12-19T00:21:24.497Z,95743.05
2018-12-19T00:21:57.621Z,95742.13
2018-12-19T00:22:30.802Z,95746.47
2018-12-19T00:23:03.865Z,95740.97
2018-12-19T00:23:36.956Z,95740.55
2018-12-19T00:24:09.954Z,95738.55
2018-12-19T00:24:42.748Z,95737.79
2018-12-19T00:25:16.173Z,95740.63
2018-12-19T00:25:49.340Z,95741.72
2018-12-19T00:26:22.765Z,95738.13
2018-12-19T00:26:55.688Z,95742.05
2018-12-19T00:27:28.504Z,95740.72
2018-12-19T00:28:01.665Z,95742.38
2018-12-19T00:28:34.610Z,95740.37
2018-12-19T00:29:07.533Z,95737.55
2018-12-19T00:29:40.353Z,95735.46
2018-12-19T00:30:13.765Z,95737.62
2018-12-19T00:30:46.722Z,95741.63
2018-12-19T00:31:19.965Z,95740.37
2018-12-19T00:31:52.812Z,95743.38
2018-12-19T00:32:25.683Z,95740.05
2018-12-19T00:32:58.984Z,95736.71
2018-12-19T00:33:31.863Z,95734.70
2018-12-19T00:34:05.065Z,95730.70
2018-12-19T00:34:38.147Z,95729.88
2018-12-19T00:35:11.350Z,95724.38
2018-12-19T00:35:44.744Z,95720.38
2018-12-19T00:36:17.863Z,95724.29
2018-12-19T00:36:51.130Z,95722.12
2018-12-19T00:37:24.176Z,95722.28
2018-12-19T00:37:57.163Z,95722.70
2018-12-19T00:38:30.231Z,95719.88
2018-12-19T00:39:09.385Z,95718.63
2018-12-19T00:39:38.817Z,95715.03
2018-12-19T00:40:11.835Z,95714.28
2018-12-19T00:40:44.699Z,95718.20
2018-12-19T00:41:17.714Z,95711.28
2018-12-19T00:41:50.695Z,95715.62
2018-12-19T00:42:24.182Z,95711.70
2018-12-19T00:42:56.942Z,95707.86
2018-12-19T00:43:29.858Z,95712.53
2018-12-19T00:44:02.777Z,95711.45
2018-12-19T00:44:35.714Z,95707.36
2018-12-19T00:45:08.668Z,95708.20
2018-12-19T00:45:41.649Z,95709.95
2018-12-19T00:46:14.648Z,95706.03
2018-12-19T00:46:47.706Z,95705.70
2018-12-19T00:47:20.635Z,95705.28
2018-12-19T00:47:53.683Z,95705.53
2018-12-19T00:48:26.920Z,95703.20
2018-12-19T00:49:00.124Z,95707.03
2018-12-19T00:49:33.874Z,95705.03
2018-12-19T00:50:06.959Z,95708.28
2018-12-19T00:50:41.087Z,95710.53
2018-12-19T00:51:14.183Z,95708.36
2018-12-19T00:51:47.524Z,95710.70
2018-12-19T00:52:20.623Z,95709.75
2018-12-19T00:52:53.520Z,95709.53
2018-12-19T00:53:26.612Z,95714.37
2018-12-19T00:53:59.604Z,95710.53
2018-12-19T00:54:32.683Z,95706.45
2018-12-19T00:55:05.544Z,95706.78
2018-12-19T00:55:38.340Z,95707.20
2018-12-19T00:56:11.408Z,95708.36
2018-12-19T00:56:44.243Z,95705.28
2018-12-19T00:57:17.222Z,95705.03
2018-12-19T00:57:50.425Z,95709.86
2018-12-19T00:58:23.505Z,95703.75
2018-12-19T00:58:56.717Z,95709.95
2018-12-19T00:59:29.795Z,95708.86
2018-12-19T01:00:02.895Z,95715.03
2018-12-19T01:00:35.846Z,95718.28
2018-12-19T01:01:08.784Z,95719.45
2018-12-19T01:01:42.074Z,95716.03
2018-12-19T01:02:15.096Z,95720.53
2018-12-19T01:02:48.123Z,95720.13
2018-12-19T01:03:21.090Z,95719.62
2018-12-19T01:03:54.373Z,95716.37
2018-12-19T01:04:27.366Z,95715.20
2018-12-19T01:05:00.315Z,95717.42
2018-12-19T01:05:33.129Z,95714.62
2018-12-19T01:06:05.893Z,95718.20
2018-12-19T01:06:38.982Z,95720.03
2018-12-19T01:07:12.043Z,95719.03
2018-12-19T01:07:45.619Z,95717.87
2018-12-19T01:08:18.554Z,95714.20
2018-12-19T01:08:52.461Z,95717.62
2018-12-19T01:09:25.603Z,95720.13
2018-12-19T01:09:58.532Z,95723.13
2018-12-19T01:10:31.689Z,95724.54
2018-12-19T01:11:04.522Z,95721.95
2018-12-19T01:11:37.705Z,95722.17
2018-12-19T01:12:10.757Z,95724.67
2018-12-19T01:12:44.075Z,95722.59
2018-12-19T01:13:17.145Z,95723.09
2018-12-19T01:13:50.342Z,95725.42
2018-12-19T01:14:22.971Z,95731.04
2018-12-19T01:14:56.031Z,95724.20
2018-12-19T01:15:29.337Z,95721.28
2018-12-19T01:16:02.632Z,95723.42
2018-12-19T01:16:35.801Z,95724.03
2018-12-19T01:17:08.820Z,95726.04
2018-12-19T01:17:42.087Z,95729.04
2018-12-19T01:18:15.120Z,95724.04
2018-12-19T01:18:48.041Z,95724.04
2018-12-19T01:19:21.200Z,95729.12
2018-12-19T01:19:54.330Z,95720.03
2018-12-19T01:20:27.486Z,95725.87
2018-12-19T01:21:00.572Z,95731.13
2018-12-19T01:21:33.880Z,95730.29
2018-12-19T01:22:06.987Z,95733.20
2018-12-19T01:22:40.175Z,95734.59
2018-12-19T01:23:13.364Z,95734.76
2018-12-19T01:23:46.449Z,95737.77
2018-12-19T01:24:19.369Z,95726.29
2018-12-19T01:24:52.794Z,95738.21
2018-12-19T01:25:25.748Z,95730.02
2018-12-19T01:25:59.319Z,95731.70
2018-12-19T01:26:32.369Z,95731.80
2018-12-19T01:27:05.187Z,95732.30
2018-12-19T01:27:38.024Z,95736.12
2018-12-19T01:28:11.138Z,95733.55
2018-12-19T01:28:44.234Z,95732.37
2018-12-19T01:29:17.286Z,95725.29
2018-12-19T01:29:50.218Z,95727.70
2018-12-19T01:30:23.440Z,95725.20
2018-12-19T01:30:56.399Z,95721.34
2018-12-19T01:31:29.687Z,95725.13
2018-12-19T01:32:02.991Z,95720.70
2018-12-19T01:32:35.917Z,95720.88
2018-12-19T01:33:08.972Z,95721.03
2018-12-19T01:33:42.033Z,95717.75
2018-12-19T01:34:15.156Z,95719.70
2018-12-19T01:34:48.250Z,95719.67
2018-12-19T01:35:21.451Z,95721.17
2018-12-19T01:35:54.486Z,95723.45
2018-12-19T01:36:27.649Z,95722.88
2018-12-19T01:37:00.783Z,95721.09
2018-12-19T01:37:33.953Z,95720.70
2018-12-19T01:38:07.016Z,95718.03
2018-12-19T01:38:39.993Z,95715.75
2018-12-19T01:39:12.881Z,95718.53
2018-12-19T01:39:46.103Z,95713.95
2018-12-19T01:40:19.070Z,95720.13
2018-12-19T01:40:51.906Z,95716.87
2018-12-19T01:41:24.742Z,95719.87
2018-12-19T01:41:57.509Z,95717.50
2018-12-19T01:42:30.766Z,95719.20
2018-12-19T01:43:04.044Z,95716.67
2018-12-19T01:43:37.698Z,95713.87
2018-12-19T01:44:11.159Z,95716.20
2018-12-19T01:44:45.013Z,95713.45
2018-12-19T01:45:18.255Z,95712.61
2018-12-19T01:45:51.213Z,95712.75
2018-12-19T01:46:24.419Z,95712.70
2018-12-19T01:46:57.537Z,95711.09
2018-12-19T01:47:30.494Z,95715.28
2018-12-19T01:48:03.443Z,95717.70
2018-12-19T01:48:36.755Z,95717.20
2018-12-19T01:49:09.668Z,95714.12
2018-12-19T01:49:42.872Z,95715.87
2018-12-19T01:50:15.903Z,95712.53
2018-12-19T01:50:49.040Z,95713.78
2018-12-19T01:51:22.583Z,95709.86
2018-12-19T01:51:55.716Z,95715.53
2018-12-19T01:52:28.761Z,95719.45
2018-12-19T01:53:01.788Z,95719.03
2018-12-19T01:53:34.732Z,95714.95
2018-12-19T01:54:07.778Z,95717.87
2018-12-19T01:54:41.046Z,95716.03
2018-12-19T01:55:14.041Z,95715.03
2018-12-19T01:55:47.147Z,95719.78
2018-12-19T01:56:20.151Z,95720.70
2018-12-19T01:56:53.257Z,95717.87
2018-12-19T01:57:26.191Z,95718.53
2018-12-19T01:57:59.302Z,95714.03
2018-12-19T01:58:32.541Z,95719.03
2018-12-19T01:59:05.587Z,95712.03
2018-12-19T01:59:38.621Z,95713.95
2018-12-19T02:00:11.684Z,95707.53
2018-12-19T02:00:44.603Z,95706.75
2018-12-19T02:01:18.050Z,95705.61
2018-12-19T02:01:51.121Z,95712.00
2018-12-19T02:02:24.132Z,95707.45
2018-12-19T02:02:57.229Z,95709.53
2018-12-19T02:03:30.558Z,95706.53
2018-12-19T02:04:03.553Z,95710.20
2018-12-19T02:04:36.691Z,95707.78
2018-12-19T02:05:09.651Z,95707.95
2018-12-19T02:05:42.618Z,95709.28
2018-12-19T02:06:16.628Z,95709.53
2018-12-19T02:06:49.680Z,95707.61
2018-12-19T02:07:22.894Z,95705.28
2018-12-19T02:07:55.889Z,95699.86
2018-12-19T02:08:28.988Z,95707.70
2018-12-19T02:09:02.391Z,95701.08
2018-12-19T02:09:35.284Z,95703.91
2018-12-19T02:10:08.389Z,95704.78
2018-12-19T02:10:41.214Z,95706.20
2018-12-19T02:11:14.075Z,95703.03
2018-12-19T02:11:47.190Z,95704.53
2018-12-19T02:12:19.994Z,95708.20
2018-12-19T02:12:52.969Z,95705.53
2018-12-19T02:13:25.926Z,95707.20
2018-12-19T02:13:58.890Z,95708.20
2018-12-19T02:14:31.975Z,95708.36
2018-12-19T02:15:05.220Z,95711.03
2018-12-19T02:15:38.382Z,95710.70
2018-12-19T02:16:11.507Z,95711.36
2018-12-19T02:16:44.506Z,95708.36
2018-12-19T02:17:18.464Z,95707.45
2018-12-19T02:17:51.535Z,95705.70
2018-12-19T02:18:24.725Z,95709.70
2018-12-19T02:18:57.784Z,95710.45
2018-12-19T02:19:30.967Z,95714.62
2018-12-19T02:20:03.980Z,95715.53
2018-12-19T02:20:37.337Z,95715.78
2018-12-19T02:21:10.371Z,95717.53
2018-12-19T02:21:43.567Z,95713.03
2018-12-19T02:22:16.810Z,95715.70
2018-12-19T02:22:49.656Z,95713.70
2018-12-19T02:23:23.206Z,95716.53
2018-12-19T02:23:56.313Z,95712.87
2018-12-19T02:24:29.350Z,95713.03
2018-12-19T02:25:02.527Z,95712.87
2018-12-19T02:25:35.774Z,95710.86
2018-12-19T02:26:08.762Z,95708.36
2018-12-19T02:26:41.903Z,95710.86
2018-12-19T02:27:14.992Z,95712.53
2018-12-19T02:27:48.049Z,95714.87
2018-12-19T02:28:21.123Z,95712.86
2018-12-19T02:28:54.513Z,95715.28
2018-12-19T02:29:27.598Z,95709.36
2018-12-19T02:30:00.610Z,95708.95
2018-12-19T02:30:33.660Z,95715.37
2018-12-19T02:31:06.577Z,95710.53
2018-12-19T02:31:39.685Z,95712.20
2018-12-19T02:32:12.700Z,95717.53
2018-12-19T02:32:45.791Z,95714.53
2018-12-19T02:33:18.677Z,95715.78
2018-12-19T02:33:51.728Z,95716.20
2018-12-19T02:34:24.834Z,95714.70
2018-12-19T02:34:57.834Z,95716.62
2018-12-19T02:35:30.882Z,95710.61
2018-12-19T02:36:03.768Z,95712.84
2018-12-19T02:36:36.584Z,95707.33
2018-12-19T02:37:09.909Z,95711.03
2018-12-19T02:37:43.034Z,95707.86
2018-12-19T02:38:16.153Z,95709.53
2018-12-19T02:38:49.030Z,95707.70
2018-12-19T02:39:21.966Z,95704.86
2018-12-19T02:39:54.960Z,95711.36
2018-12-19T02:40:27.911Z,95706.75
2018-12-19T02:41:00.838Z,95709.20
2018-12-19T02:41:34.002Z,95704.25
2018-12-19T02:42:06.973Z,95708.53
2018-12-19T02:42:40.089Z,95715.37
2018-12-19T02:43:13.246Z,95714.03
2018-12-19T02:43:46.274Z,95715.53
2018-12-19T02:44:19.285Z,95715.53
2018-12-19T02:44:52.270Z,95719.03
2018-12-19T02:45:25.376Z,95722.92
2018-12-19T02:45:58.486Z,95734.95
2018-12-19T02:46:31.505Z,95735.55
2018-12-19T02:47:04.421Z,95729.88
2018-12-19T02:47:37.439Z,95733.95
2018-12-19T02:48:10.215Z,95729.45
2018-12-19T02:48:43.570Z,95730.70
2018-12-19T02:49:16.521Z,95733.55
2018-12-19T02:49:48.744Z,95731.55
2018-12-19T02:50:20.921Z,95731.88
2018-12-19T02:50:53.095Z,95731.95
2018-12-19T02:51:25.414Z,95737.96
2018-12-19T02:51:58.573Z,95735.55
2018-12-19T02:52:31.518Z,95739.71
2018-12-19T02:53:04.363Z,95740.21
2018-12-19T02:53:37.734Z,95740.55
2018-12-19T02:54:10.815Z,95738.77
2018-12-19T02:54:43.869Z,95739.96
2018-12-19T02:55:17.131Z,95739.46
2018-12-19T02:55:50.037Z,95742.22
2018-12-19T02:56:23.274Z,95739.21
2018-12-19T02:56:56.199Z,95736.12
2018-12-19T02:57:29.271Z,95739.55
2018-12-19T02:58:02.572Z,95735.71
2018-12-19T02:58:35.738Z,95732.45
2018-12-19T02:59:08.595Z,95744.72
2018-12-19T02:59:41.864Z,95739.96
2018-12-19T03:00:14.827Z,95736.05
2018-12-19T03:00:48.031Z,95736.96
2018-12-19T03:01:21.022Z,95735.21
2018-12-19T03:01:53.910Z,95733.70
2018-12-19T03:02:27.033Z,95735.30
2018-12-19T03:03:00.489Z,95729.70
2018-12-19T03:03:33.373Z,95736.88
2018-12-19T03:04:06.586Z,95739.43
2018-12-19T03:04:40.698Z,95731.20
2018-12-19T03:05:13.914Z,95744.62
2018-12-19T03:05:46.815Z,95739.38
2018-12-19T03:06:20.104Z,95736.59
2018-12-19T03:06:53.608Z,95742.27
2018-12-19T03:07:26.706Z,95749.47
2018-12-19T03:07:59.838Z,95747.46
2018-12-19T03:08:33.008Z,95745.88
2018-12-19T03:09:06.241Z,95748.88
2018-12-19T03:09:42.878Z,95747.71
2018-12-19T03:10:14.767Z,95741.55
2018-12-19T03:10:48.039Z,95749.30
2018-12-19T03:11:21.044Z,95752.55
2018-12-19T03:11:54.078Z,95750.22
2018-12-19T03:12:26.915Z,95754.55
2018-12-19T03:13:00.078Z,95749.52
2018-12-19T03:13:33.033Z,95753.64
2018-12-19T03:14:06.069Z,95748.63
2018-12-19T03:14:39.033Z,95751.88
2018-12-19T03:15:11.879Z,95744.80
2018-12-19T03:15:44.718Z,95748.63
2018-12-19T03:16:17.665Z,95747.52
2018-12-19T03:16:50.491Z,95747.71
2018-12-19T03:17:23.431Z,95749.55
2018-12-19T03:17:56.450Z,95748.38
2018-12-19T03:18:29.469Z,95753.72
2018-12-19T03:19:02.465Z,95753.30
2018-12-19T03:19:35.655Z,95750.30
2018-12-19T03:20:08.855Z,95751.55
2018-12-19T03:20:42.141Z,95752.55
2018-12-19T03:21:15.095Z,95749.80
2018-12-19T03:21:48.562Z,95751.22
2018-12-19T03:22:21.604Z,95756.97
2018-12-19T03:22:54.613Z,95761.64
2018-12-19T03:23:27.395Z,95760.47
2018-12-19T03:24:00.703Z,95759.13
2018-12-19T03:24:33.901Z,95760.55
2018-12-19T03:25:07.001Z,95761.80
2018-12-19T03:25:40.158Z,95758.38
2018-12-19T03:26:13.331Z,95756.55
2018-12-19T03:26:46.325Z,95755.55
2018-12-19T03:27:19.368Z,95753.97
2018-12-19T03:27:52.279Z,95745.05
2018-12-19T03:28:25.508Z,95753.89
2018-12-19T03:28:58.799Z,95747.88
2018-12-19T03:29:31.836Z,95749.38
2018-12-19T03:30:04.780Z,95752.55
2018-12-19T03:30:37.988Z,95756.88
2018-12-19T03:31:11.188Z,95758.38
2018-12-19T03:31:44.361Z,95756.05
2018-12-19T03:32:17.353Z,95747.21
2018-12-19T03:32:50.288Z,95752.13
2018-12-19T03:33:23.339Z,95752.55
2018-12-19T03:33:56.536Z,95749.44
2018-12-19T03:34:29.435Z,95748.52
2018-12-19T03:35:02.365Z,95752.94
2018-12-19T03:35:35.108Z,95756.05
2018-12-19T03:36:08.085Z,95759.72
2018-12-19T03:36:41.260Z,95761.97
2018-12-19T03:37:14.287Z,95760.86
2018-12-19T03:37:47.570Z,95764.61
2018-12-19T03:38:20.483Z,95769.89
2018-12-19T03:38:53.523Z,95762.69
2018-12-19T03:39:26.513Z,95763.69
2018-12-19T03:39:59.383Z,95761.64
2018-12-19T03:40:32.583Z,95760.38
2018-12-19T03:41:05.986Z,95761.89
2018-12-19T03:41:39.067Z,95766.72
2018-12-19T03:42:12.002Z,95760.52
2018-12-19T03:42:45.362Z,95765.36
2018-12-19T03:43:18.457Z,95759.44
2018-12-19T03:43:51.507Z,95762.80
2018-12-19T03:44:24.596Z,95757.55
2018-12-19T03:44:57.651Z,95752.72
2018-12-19T03:45:30.956Z,95753.55
2018-12-19T03:46:03.572Z,95750.30
2018-12-19T03:46:36.983Z,95746.55
2018-12-19T03:47:10.759Z,95749.05
2018-12-19T03:47:43.672Z,95749.97
2018-12-19T03:48:16.794Z,95748.55
2018-12-19T03:48:49.993Z,95743.97
2018-12-19T03:49:23.178Z,95738.38
2018-12-19T03:49:57.364Z,95738.54
2018-12-19T03:50:30.260Z,95742.71
2018-12-19T03:51:03.649Z,95740.77
2018-12-19T03:51:36.500Z,95743.84
2018-12-19T03:52:09.452Z,95745.38
2018-12-19T03:52:42.675Z,95745.10
2018-12-19T03:53:15.448Z,95738.71
2018-12-19T03:53:48.636Z,95734.38
2018-12-19T03:54:21.811Z,95737.93
2018-12-19T03:54:54.618Z,95736.01
2018-12-19T03:55:27.918Z,95738.21
2018-12-19T03:56:01.227Z,95731.02
2018-12-19T03:56:34.065Z,95730.34
2018-12-19T03:57:07.076Z,95727.54
2018-12-19T03:57:39.925Z,95723.59
2018-12-19T03:58:12.801Z,95730.20
2018-12-19T03:58:45.775Z,95727.13
2018-12-19T03:59:18.927Z,95726.92
2018-12-19T03:59:52.248Z,95734.59
2018-12-19T04:00:25.250Z,95726.38
2018-12-19T04:00:58.418Z,95728.51
2018-12-19T04:01:31.354Z,95730.70
2018-12-19T04:02:04.174Z,95732.55
2018-12-19T04:02:37.319Z,95733.55
2018-12-19T04:03:10.587Z,95728.84
2018-12-19T04:03:43.764Z,95734.70
2018-12-19T04:04:16.714Z,95733.43
2018-12-19T04:04:49.733Z,95737.55
2018-12-19T04:05:22.882Z,95732.37
2018-12-19T04:05:56.154Z,95729.04
2018-12-19T04:06:29.505Z,95724.92
2018-12-19T04:07:03.113Z,95732.76
2018-12-19T04:07:36.142Z,95735.43
2018-12-19T04:08:09.273Z,95732.70
2018-12-19T04:08:42.637Z,95736.88
2018-12-19T04:09:15.202Z,95733.37
2018-12-19T04:09:48.352Z,95726.51
2018-12-19T04:10:21.715Z,95726.04
2018-12-19T04:10:54.538Z,95733.20
2018-12-19T04:11:27.922Z,95726.54
2018-12-19T04:12:00.852Z,95733.70
2018-12-19T04:12:34.020Z,95729.29
2018-12-19T04:13:07.401Z,95732.87
2018-12-19T04:13:41.212Z,95733.37
2018-12-19T04:14:14.059Z,95736.20
2018-12-19T04:14:47.212Z,95738.13
2018-12-19T04:15:20.552Z,95735.55
2018-12-19T04:15:53.498Z,95738.30
2018-12-19T04:16:26.627Z,95738.21
2018-12-19T04:16:59.870Z,95741.21
2018-12-19T04:17:32.869Z,95738.05
2018-12-19T04:18:05.852Z,95742.38
2018-12-19T04:18:39.026Z,95741.96
2018-12-19T04:19:12.161Z,95744.22
2018-12-19T04:19:45.393Z,95752.80
2018-12-19T04:20:18.523Z,95756.80
2018-12-19T04:20:51.421Z,95754.13
2018-12-19T04:21:24.563Z,95758.88
2018-12-19T04:21:57.563Z,95758.38
2018-12-19T04:22:30.332Z,95764.64
2018-12-19T04:23:03.502Z,95764.39
2018-12-19T04:23:36.643Z,95761.14
2018-12-19T04:24:09.561Z,95758.72
2018-12-19T04:24:42.550Z,95765.47
2018-12-19T04:25:15.728Z,95761.39
2018-12-19T04:25:48.923Z,95768.81
2018-12-19T04:26:21.923Z,95762.72
2018-12-19T04:26:54.956Z,95759.55
2018-12-19T04:27:27.960Z,95759.55
2018-12-19T04:28:01.280Z,95757.80
2018-12-19T04:28:34.350Z,95755.80
2018-12-19T04:29:07.581Z,95755.97
2018-12-19T04:29:40.442Z,95754.80
2018-12-19T04:30:13.480Z,95749.39
2018-12-19T04:30:46.576Z,95752.72
2018-12-19T04:31:19.635Z,95749.05
2018-12-19T04:31:52.446Z,95751.22
2018-12-19T04:32:25.649Z,95749.80
2018-12-19T04:32:58.987Z,95750.47
2018-12-19T04:33:31.944Z,95745.72
2018-12-19T04:34:04.898Z,95746.55
2018-12-19T04:34:38.103Z,95746.13
2018-12-19T04:35:11.226Z,95747.05
2018-12-19T04:35:44.290Z,95744.05
2018-12-19T04:36:17.364Z,95744.38
2018-12-19T04:36:50.495Z,95742.55
2018-12-19T04:37:23.424Z,95742.88
2018-12-19T04:37:56.417Z,95739.71
2018-12-19T04:38:29.513Z,95739.71
2018-12-19T04:39:02.624Z,95740.21
2018-12-19T04:39:35.486Z,95730.54
2018-12-19T04:40:08.482Z,95736.46
2018-12-19T04:40:41.335Z,95732.05
2018-12-19T04:41:14.188Z,95733.20
2018-12-19T04:41:47.249Z,95731.30
2018-12-19T04:42:20.304Z,95730.95
2018-12-19T04:42:53.324Z,95727.29
2018-12-19T04:43:26.272Z,95730.88
2018-12-19T04:43:59.451Z,95736.88
2018-12-19T04:44:32.662Z,95732.45
2018-12-19T04:45:05.499Z,95728.13
2018-12-19T04:45:38.402Z,95734.05
2018-12-19T04:46:11.547Z,95733.70
2018-12-19T04:46:44.960Z,95732.05
2018-12-19T04:47:18.124Z,95731.05
2018-12-19T04:47:51.263Z,95732.87
2018-12-19T04:48:24.313Z,95731.13
2018-12-19T04:48:57.211Z,95730.80
2018-12-19T04:49:30.310Z,95731.05
2018-12-19T04:50:03.471Z,95736.88
2018-12-19T04:50:36.626Z,95726.38
2018-12-19T04:51:09.612Z,95726.29
2018-12-19T04:51:42.818Z,95727.70
2018-12-19T04:52:15.925Z,95724.63
2018-12-19T04:52:49.281Z,95726.04
2018-12-19T04:53:22.090Z,95725.45
2018-12-19T04:53:55.394Z,95729.05
2018-12-19T04:54:28.459Z,95725.20
2018-12-19T04:55:01.622Z,95722.03
2018-12-19T04:55:34.879Z,95727.20
2018-12-19T04:56:08.208Z,95727.38
2018-12-19T04:56:41.548Z,95728.04
2018-12-19T04:57:14.119Z,95727.54
2018-12-19T04:57:46.724Z,95731.38
2018-12-19T04:58:19.342Z,95737.88
2018-12-19T04:58:52.482Z,95731.38
2018-12-19T04:59:25.508Z,95737.71
2018-12-19T04:59:58.677Z,95729.05
2018-12-19T05:00:32.089Z,95736.55
2018-12-19T05:01:04.982Z,95736.30
2018-12-19T05:01:38.227Z,95734.71
2018-12-19T05:02:11.319Z,95736.71
2018-12-19T05:02:44.365Z,95731.80
2018-12-19T05:03:17.538Z,95734.05
2018-12-19T05:03:50.499Z,95729.36
2018-12-19T05:04:23.468Z,95735.67
2018-12-19T05:04:56.465Z,95736.33
2018-12-19T05:05:29.700Z,95740.05
2018-12-19T05:06:02.849Z,95740.08
2018-12-19T05:06:35.896Z,95737.75
2018-12-19T05:07:08.816Z,95741.83
2018-12-19T05:07:41.865Z,95739.34
2018-12-19T05:08:15.943Z,95741.67
2018-12-19T05:08:49.217Z,95743.20
2018-12-19T05:09:22.330Z,95740.28
2018-12-19T05:09:55.233Z,95739.29
2018-12-19T05:10:28.346Z,95735.13
2018-12-19T05:11:01.339Z,95737.41
2018-12-19T05:11:34.269Z,95738.50
2018-12-19T05:12:07.456Z,95731.16
2018-12-19T05:12:40.872Z,95731.70
2018-12-19T05:13:14.078Z,95731.42
2018-12-19T05:13:47.395Z,95734.95
2018-12-19T05:14:20.324Z,95738.20
2018-12-19T05:14:53.396Z,95740.45
2018-12-19T05:15:27.313Z,95741.37
2018-12-19T05:16:00.365Z,95741.63
2018-12-19T05:16:33.343Z,95739.98
2018-12-19T05:17:06.522Z,95743.31
2018-12-19T05:17:39.864Z,95743.31
2018-12-19T05:18:13.252Z,95742.32
2018-12-19T05:18:46.558Z,95744.41
2018-12-19T05:19:19.607Z,95742.49
2018-12-19T05:19:52.726Z,95742.74
2018-12-19T05:20:25.676Z,95737.74
2018-12-19T05:20:58.863Z,95737.58
2018-12-19T05:21:32.016Z,95737.50
2018-12-19T05:22:04.828Z,95738.16
2018-12-19T05:22:37.565Z,95741.53
2018-12-19T05:23:10.640Z,95740.61
2018-12-19T05:23:43.875Z,95736.78
2018-12-19T05:24:17.105Z,95738.12
2018-12-19T05:24:50.241Z,95738.16
2018-12-19T05:25:23.420Z,95738.52
2018-12-19T05:25:56.653Z,95738.20
2018-12-19T05:26:30.066Z,95739.61
2018-12-19T05:27:03.199Z,95746.37
2018-12-19T05:27:36.357Z,95736.52
2018-12-19T05:28:09.409Z,95741.95
2018-12-19T05:28:42.299Z,95741.70
2018-12-19T05:29:15.189Z,95736.24
2018-12-19T05:29:48.313Z,95736.99
2018-12-19T05:30:21.122Z,95741.33
2018-12-19T05:30:54.099Z,95738.91
2018-12-19T05:31:26.868Z,95739.99
2018-12-19T05:31:59.826Z,95741.08
2018-12-19T05:32:32.808Z,95738.33
2018-12-19T05:33:06.803Z,95742.16
2018-12-19T05:33:39.710Z,95740.16
2018-12-19T05:34:12.759Z,95738.73
2018-12-19T05:34:45.918Z,95738.91
2018-12-19T05:35:19.055Z,95742.16
2018-12-19T05:35:52.254Z,95738.03
2018-12-19T05:36:26.411Z,95736.35
2018-12-19T05:36:59.284Z,95740.98
2018-12-19T05:37:32.421Z,95740.21
2018-12-19T05:38:05.292Z,95746.83
2018-12-19T05:38:38.325Z,95744.37
2018-12-19T05:39:11.348Z,95743.12
2018-12-19T05:39:44.407Z,95742.78
2018-12-19T05:40:19.079Z,95738.61
2018-12-19T05:40:52.071Z,95742.03
2018-12-19T05:41:24.774Z,95738.70
2018-12-19T05:41:57.709Z,95743.45
2018-12-19T05:42:30.777Z,95742.48
2018-12-19T05:43:04.198Z,95743.78
2018-12-19T05:43:37.556Z,95739.28
2018-12-19T05:44:10.535Z,95737.78
2018-12-19T05:44:43.740Z,95737.86
2018-12-19T05:45:16.739Z,95734.45
2018-12-19T05:45:50.013Z,95737.78
2018-12-19T05:46:23.103Z,95733.11
2018-12-19T05:46:56.441Z,95734.77
2018-12-19T05:47:29.711Z,95734.86
2018-12-19T05:48:03.269Z,95733.28
2018-12-19T05:48:36.270Z,95730.77
2018-12-19T05:49:09.716Z,95727.94
2018-12-19T05:49:42.818Z,95733.44
2018-12-19T05:50:15.897Z,95729.94
2018-12-19T05:50:48.845Z,95734.28
2018-12-19T05:51:21.723Z,95727.27
2018-12-19T05:51:55.034Z,95728.94
2018-12-19T05:52:27.857Z,95730.27
2018-12-19T05:53:00.616Z,95728.11
2018-12-19T05:53:33.737Z,95726.19
2018-12-19T05:54:06.510Z,95726.77
2018-12-19T05:54:39.493Z,95728.11
2018-12-19T05:55:12.413Z,95726.69
2018-12-19T05:55:45.483Z,95727.02
2018-12-19T05:56:18.299Z,95730.80
2018-12-19T05:56:51.384Z,95732.14
2018-12-19T05:57:24.607Z,95733.39
2018-12-19T05:57:57.677Z,95736.64
2018-12-19T05:58:30.914Z,95738.98
2018-12-19T05:59:03.925Z,95737.39
2018-12-19T05:59:36.673Z,95738.73
2018-12-19T06:00:10.075Z,95739.73
2018-12-19T06:00:43.365Z,95741.48
2018-12-19T06:01:16.370Z,95735.64
2018-12-19T06:01:49.261Z,95739.31
2018-12-19T06:02:22.441Z,95739.81
2018-12-19T06:02:55.469Z,95736.64
2018-12-19T06:03:28.278Z,95735.23
2018-12-19T06:04:01.501Z,95742.56
2018-12-19T06:04:34.480Z,95744.77
2018-12-19T06:05:07.864Z,95746.52
2018-12-19T06:05:40.575Z,95744.84
2018-12-19T06:06:13.776Z,95741.52
2018-12-19T06:06:46.706Z,95739.63
2018-12-19T06:07:19.533Z,95743.41
2018-12-19T06:07:52.609Z,95740.16
2018-12-19T06:08:25.611Z,95737.48
2018-12-19T06:08:58.513Z,95739.91
2018-12-19T06:09:31.703Z,95742.33
2018-12-19T06:10:04.719Z,95743.21
2018-12-19T06:10:37.821Z,95742.30
2018-12-19T06:11:10.361Z,95743.55
2018-12-19T06:11:43.220Z,95745.55
2018-12-19T06:12:16.345Z,95740.87
2018-12-19T06:12:49.500Z,95740.96
2018-12-19T06:13:22.799Z,95744.05
2018-12-19T06:13:55.590Z,95741.21
2018-12-19T06:14:28.589Z,95744.05
2018-12-19T06:15:01.632Z,95743.05
2018-12-19T06:15:34.766Z,95740.54
2018-12-19T06:16:07.767Z,95741.37
2018-12-19T06:16:40.737Z,95741.88
2018-12-19T06:17:13.706Z,95746.21
2018-12-19T06:17:46.744Z,95747.05
2018-12-19T06:18:19.767Z,95741.13
2018-12-19T06:18:52.739Z,95742.71
2018-12-19T06:19:25.795Z,95744.71
2018-12-19T06:19:58.921Z,95746.93
2018-12-19T06:20:32.067Z,95751.85
2018-12-19T06:21:05.230Z,95745.18
2018-12-19T06:21:38.223Z,95745.27
2018-12-19T06:22:11.164Z,95746.85
2018-12-19T06:22:44.448Z,95752.27
2018-12-19T06:23:17.671Z,95753.85
2018-12-19T06:23:50.791Z,95749.94
2018-12-19T06:24:23.819Z,95749.69
2018-12-19T06:24:56.933Z,95750.09
2018-12-19T06:25:29.665Z,95751.85
2018-12-19T06:26:02.615Z,95751.72
2018-12-19T06:26:35.701Z,95750.09
2018-12-19T06:27:08.648Z,95751.35
2018-12-19T06:27:41.943Z,95755.77
2018-12-19T06:28:14.904Z,95749.55
2018-12-19T06:28:47.819Z,95752.60